sensor_id;sensor_type;location;lat;lon;timestamp;temperature;humidity
11446;DHT22;5779;64.178;15.432;2022-12-20T00:01:05;-5.30;99.90
11446;DHT22;5779;64.178;15.432;2022-12-20T00:03:53;-5.40;99.90
11446;DHT22;5779;64.178;15.432;2022-12-20T00:06:40;-5.40;99.90
11446;DHT22;5779;64.178;15.432;2022-12-20T00:09:27;-5.50;99.90
11446;DHT22;5779;64.178;15.432;2022-12-20T00:12:14;-5.60;99.90
11446;DHT22;5779;64.178;15.432;2022-12-20T00:15:01;-5.60;99.90
11446;DHT22;5779;64.178;15.432;2022-12-20T00:17:50;-5.60;99.90
11446;DHT22;5779;64.178;15.432;2022-12-20T00:20:37;-5.60;99.90
11446;DHT22;5779;64.178;15.432;2022-12-20T00:23:24;-5.70;99.90
11446;DHT22;5779;64.178;15.432;2022-12-20T00:26:12;-5.50;99.90
11446;DHT22;5779;64.178;15.432;2022-12-20T00:29:00;-5.50;99.90
11446;DHT22;5779;64.178;15.432;2022-12-20T00:31:46;-5.50;99.90
11446;DHT22;5779;64.178;15.432;2022-12-20T00:34:35;-5.60;99.90
11446;DHT22;5779;64.178;15.432;2022-12-20T00:37:21;-5.60;99.90
11446;DHT22;5779;64.178;15.432;2022-12-20T00:40:09;-5.50;99.90
11446;DHT22;5779;64.178;15.432;2022-12-20T00:42:55;-5.50;99.90
11446;DHT22;5779;64.178;15.432;2022-12-20T00:45:42;-5.60;99.90
11446;DHT22;5779;64.178;15.432;2022-12-20T00:48:29;-5.50;99.90
11446;DHT22;5779;64.178;15.432;2022-12-20T00:51:20;-5.60;99.90
11446;DHT22;5779;64.178;15.432;2022-12-20T00:54:07;-5.60;99.90
11446;DHT22;5779;64.178;15.432;2022-12-20T00:56:54;-5.60;99.90
11446;DHT22;5779;64.178;15.432;2022-12-20T00:59:41;-5.60;99.90
11446;DHT22;5779;64.178;15.432;2022-12-20T01:02:28;-5.60;99.90
11446;DHT22;5779;64.178;15.432;2022-12-20T01:05:14;-5.50;99.90
11446;DHT22;5779;64.178;15.432;2022-12-20T01:08:02;-5.50;99.90
11446;DHT22;5779;64.178;15.432;2022-12-20T01:10:57;-5.50;99.90
11446;DHT22;5779;64.178;15.432;2022-12-20T01:13:46;-5.40;99.90
11446;DHT22;5779;64.178;15.432;2022-12-20T01:16:35;-5.40;99.90
11446;DHT22;5779;64.178;15.432;2022-12-20T01:19:22;-5.40;99.90
11446;DHT22;5779;64.178;15.432;2022-12-20T01:22:09;-5.40;99.90
11446;DHT22;5779;64.178;15.432;2022-12-20T01:24:58;-5.30;99.90
11446;DHT22;5779;64.178;15.432;2022-12-20T01:27:44;-5.40;99.90
11446;DHT22;5779;64.178;15.432;2022-12-20T01:30:31;-5.30;99.90
11446;DHT22;5779;64.178;15.432;2022-12-20T01:33:18;-5.30;99.90
11446;DHT22;5779;64.178;15.432;2022-12-20T01:36:06;-5.30;99.90
11446;DHT22;5779;64.178;15.432;2022-12-20T01:38:55;-5.30;99.90
11446;DHT22;5779;64.178;15.432;2022-12-20T01:41:44;-5.40;99.90
11446;DHT22;5779;64.178;15.432;2022-12-20T01:44:56;-5.30;99.90
11446;DHT22;5779;64.178;15.432;2022-12-20T01:47:42;-5.30;99.90
11446;DHT22;5779;64.178;15.432;2022-12-20T01:50:29;-5.40;99.90
11446;DHT22;5779;64.178;15.432;2022-12-20T01:53:17;-5.30;99.90
11446;DHT22;5779;64.178;15.432;2022-12-20T01:56:06;-5.30;99.90
11446;DHT22;5779;64.178;15.432;2022-12-20T01:58:56;-5.10;99.90
11446;DHT22;5779;64.178;15.432;2022-12-20T02:01:43;-5.10;99.90
11446;DHT22;5779;64.178;15.432;2022-12-20T02:04:30;-5.10;99.90
11446;DHT22;5779;64.178;15.432;2022-12-20T02:07:19;-4.90;99.90
11446;DHT22;5779;64.178;15.432;2022-12-20T02:10:08;-4.90;99.90
11446;DHT22;5779;64.178;15.432;2022-12-20T02:13:00;-4.90;99.90
11446;DHT22;5779;64.178;15.432;2022-12-20T02:15:54;-4.90;99.90
11446;DHT22;5779;64.178;15.432;2022-12-20T02:18:45;-5.00;99.90
11446;DHT22;5779;64.178;15.432;2022-12-20T02:21:37;-4.70;99.90
11446;DHT22;5779;64.178;15.432;2022-12-20T02:24:46;-4.60;99.90
11446;DHT22;5779;64.178;15.432;2022-12-20T02:27:53;-4.60;99.90
11446;DHT22;5779;64.178;15.432;2022-12-20T02:30:45;-4.50;99.90
11446;DHT22;5779;64.178;15.432;2022-12-20T02:33:33;-4.50;99.90
11446;DHT22;5779;64.178;15.432;2022-12-20T02:36:20;-4.40;99.90
11446;DHT22;5779;64.178;15.432;2022-12-20T02:39:14;-4.50;99.90
11446;DHT22;5779;64.178;15.432;2022-12-20T02:42:03;-4.70;99.90
11446;DHT22;5779;64.178;15.432;2022-12-20T02:44:54;-4.80;99.90
11446;DHT22;5779;64.178;15.432;2022-12-20T02:48:02;-4.80;99.90
11446;DHT22;5779;64.178;15.432;2022-12-20T02:50:52;-4.90;99.90
11446;DHT22;5779;64.178;15.432;2022-12-20T02:53:40;-4.90;99.90
11446;DHT22;5779;64.178;15.432;2022-12-20T02:56:31;-4.80;99.90
11446;DHT22;5779;64.178;15.432;2022-12-20T02:59:21;-4.90;99.90
11446;DHT22;5779;64.178;15.432;2022-12-20T03:02:10;-4.90;99.90
11446;DHT22;5779;64.178;15.432;2022-12-20T03:04:59;-4.90;99.90
11446;DHT22;5779;64.178;15.432;2022-12-20T03:07:46;-4.80;99.90
11446;DHT22;5779;64.178;15.432;2022-12-20T03:10:33;-4.80;99.90
11446;DHT22;5779;64.178;15.432;2022-12-20T03:13:20;-4.80;99.90
11446;DHT22;5779;64.178;15.432;2022-12-20T03:16:07;-4.80;99.90
11446;DHT22;5779;64.178;15.432;2022-12-20T03:18:54;-4.80;99.90
11446;DHT22;5779;64.178;15.432;2022-12-20T03:21:43;-4.70;99.90
11446;DHT22;5779;64.178;15.432;2022-12-20T03:24:29;-4.70;99.90
11446;DHT22;5779;64.178;15.432;2022-12-20T03:27:16;-4.60;99.90
11446;DHT22;5779;64.178;15.432;2022-12-20T03:30:04;-4.60;99.90
11446;DHT22;5779;64.178;15.432;2022-12-20T03:32:51;-4.70;99.90
11446;DHT22;5779;64.178;15.432;2022-12-20T03:35:37;-4.60;99.90
11446;DHT22;5779;64.178;15.432;2022-12-20T03:38:26;-4.50;99.90
11446;DHT22;5779;64.178;15.432;2022-12-20T03:41:13;-4.50;99.90
11446;DHT22;5779;64.178;15.432;2022-12-20T03:44:00;-4.50;99.90
11446;DHT22;5779;64.178;15.432;2022-12-20T03:46:46;-4.40;99.90
11446;DHT22;5779;64.178;15.432;2022-12-20T03:49:33;-4.40;99.90
11446;DHT22;5779;64.178;15.432;2022-12-20T03:52:20;-4.40;99.90
11446;DHT22;5779;64.178;15.432;2022-12-20T03:55:09;-4.40;99.90
11446;DHT22;5779;64.178;15.432;2022-12-20T03:57:56;-4.40;99.90
11446;DHT22;5779;64.178;15.432;2022-12-20T04:00:43;-4.30;99.90
11446;DHT22;5779;64.178;15.432;2022-12-20T04:03:30;-4.30;99.90
11446;DHT22;5779;64.178;15.432;2022-12-20T04:06:17;-4.30;99.90
11446;DHT22;5779;64.178;15.432;2022-12-20T04:09:04;-4.30;99.90
11446;DHT22;5779;64.178;15.432;2022-12-20T04:11:53;-4.30;99.90
11446;DHT22;5779;64.178;15.432;2022-12-20T04:14:40;-4.20;99.90
11446;DHT22;5779;64.178;15.432;2022-12-20T04:17:26;-4.30;99.90
11446;DHT22;5779;64.178;15.432;2022-12-20T04:20:14;-4.20;99.90
11446;DHT22;5779;64.178;15.432;2022-12-20T04:23:06;-4.30;99.90
11446;DHT22;5779;64.178;15.432;2022-12-20T04:25:53;-4.20;99.90
11446;DHT22;5779;64.178;15.432;2022-12-20T04:28:41;-4.20;99.90
11446;DHT22;5779;64.178;15.432;2022-12-20T04:31:28;-4.30;99.90
11446;DHT22;5779;64.178;15.432;2022-12-20T04:34:15;-4.20;99.90
11446;DHT22;5779;64.178;15.432;2022-12-20T04:37:02;-4.20;99.90
11446;DHT22;5779;64.178;15.432;2022-12-20T04:39:49;-4.20;99.90
11446;DHT22;5779;64.178;15.432;2022-12-20T04:42:35;-4.20;99.90
11446;DHT22;5779;64.178;15.432;2022-12-20T04:45:23;-4.10;99.90
11446;DHT22;5779;64.178;15.432;2022-12-20T04:48:10;-4.10;99.90
11446;DHT22;5779;64.178;15.432;2022-12-20T04:50:57;-4.20;99.90
11446;DHT22;5779;64.178;15.432;2022-12-20T04:53:44;-4.20;99.90
11446;DHT22;5779;64.178;15.432;2022-12-20T04:56:33;-4.20;99.90
11446;DHT22;5779;64.178;15.432;2022-12-20T04:59:19;-4.20;99.90
11446;DHT22;5779;64.178;15.432;2022-12-20T05:02:08;-4.10;99.90
11446;DHT22;5779;64.178;15.432;2022-12-20T05:04:55;-4.00;99.90
11446;DHT22;5779;64.178;15.432;2022-12-20T05:07:42;-4.00;99.90
11446;DHT22;5779;64.178;15.432;2022-12-20T05:10:28;-3.90;99.90
11446;DHT22;5779;64.178;15.432;2022-12-20T05:13:15;-3.90;99.90
11446;DHT22;5779;64.178;15.432;2022-12-20T05:16:02;-3.90;99.90
11446;DHT22;5779;64.178;15.432;2022-12-20T05:18:51;-3.90;99.90
11446;DHT22;5779;64.178;15.432;2022-12-20T05:21:37;-4.00;99.90
11446;DHT22;5779;64.178;15.432;2022-12-20T05:24:41;-4.00;99.90
11446;DHT22;5779;64.178;15.432;2022-12-20T05:27:46;-3.90;99.90
11446;DHT22;5779;64.178;15.432;2022-12-20T05:30:33;-3.90;99.90
11446;DHT22;5779;64.178;15.432;2022-12-20T05:33:19;-4.00;99.90
11446;DHT22;5779;64.178;15.432;2022-12-20T05:36:08;-4.00;99.90
11446;DHT22;5779;64.178;15.432;2022-12-20T05:38:55;-4.00;99.90
11446;DHT22;5779;64.178;15.432;2022-12-20T05:41:42;-4.00;99.90
11446;DHT22;5779;64.178;15.432;2022-12-20T05:44:29;-4.00;99.90
11446;DHT22;5779;64.178;15.432;2022-12-20T05:47:15;-4.00;99.90
11446;DHT22;5779;64.178;15.432;2022-12-20T05:50:03;-4.00;99.90
11446;DHT22;5779;64.178;15.432;2022-12-20T05:52:51;-4.00;99.90
11446;DHT22;5779;64.178;15.432;2022-12-20T05:55:40;-4.00;99.90
11446;DHT22;5779;64.178;15.432;2022-12-20T05:58:27;-4.00;99.90
11446;DHT22;5779;64.178;15.432;2022-12-20T06:01:14;-3.90;99.90
11446;DHT22;5779;64.178;15.432;2022-12-20T06:04:01;-3.90;99.90
11446;DHT22;5779;64.178;15.432;2022-12-20T06:06:48;-3.90;99.90
11446;DHT22;5779;64.178;15.432;2022-12-20T06:09:36;-4.00;99.90
11446;DHT22;5779;64.178;15.432;2022-12-20T06:12:23;-3.90;99.90
11446;DHT22;5779;64.178;15.432;2022-12-20T06:15:10;-3.90;99.90
11446;DHT22;5779;64.178;15.432;2022-12-20T06:17:57;-3.90;99.90
11446;DHT22;5779;64.178;15.432;2022-12-20T06:20:49;-3.90;99.90
11446;DHT22;5779;64.178;15.432;2022-12-20T06:23:36;-3.90;99.90
11446;DHT22;5779;64.178;15.432;2022-12-20T06:26:24;-3.90;99.90
11446;DHT22;5779;64.178;15.432;2022-12-20T06:29:11;-3.90;99.90
11446;DHT22;5779;64.178;15.432;2022-12-20T06:32:02;-3.90;99.90
11446;DHT22;5779;64.178;15.432;2022-12-20T06:34:50;-3.90;99.90
11446;DHT22;5779;64.178;15.432;2022-12-20T06:37:37;-3.90;99.90
11446;DHT22;5779;64.178;15.432;2022-12-20T06:40:25;-3.80;99.90
11446;DHT22;5779;64.178;15.432;2022-12-20T06:43:13;-3.90;99.90
11446;DHT22;5779;64.178;15.432;2022-12-20T06:45:59;-3.90;99.90
11446;DHT22;5779;64.178;15.432;2022-12-20T06:48:46;-3.80;99.90
11446;DHT22;5779;64.178;15.432;2022-12-20T06:51:33;-3.80;99.90
11446;DHT22;5779;64.178;15.432;2022-12-20T06:54:20;-3.70;99.90
11446;DHT22;5779;64.178;15.432;2022-12-20T06:57:07;-3.80;99.90
11446;DHT22;5779;64.178;15.432;2022-12-20T06:59:56;-3.80;99.90
11446;DHT22;5779;64.178;15.432;2022-12-20T07:02:43;-3.80;99.90
11446;DHT22;5779;64.178;15.432;2022-12-20T07:05:30;-3.70;99.90
11446;DHT22;5779;64.178;15.432;2022-12-20T07:08:16;-3.90;99.90
11446;DHT22;5779;64.178;15.432;2022-12-20T07:11:04;-3.80;99.90
11446;DHT22;5779;64.178;15.432;2022-12-20T07:13:54;-3.80;99.90
11446;DHT22;5779;64.178;15.432;2022-12-20T07:16:42;-3.80;99.90
11446;DHT22;5779;64.178;15.432;2022-12-20T07:19:29;-3.80;99.90
11446;DHT22;5779;64.178;15.432;2022-12-20T07:22:16;-3.80;99.90
11446;DHT22;5779;64.178;15.432;2022-12-20T07:25:03;-3.80;99.90
11446;DHT22;5779;64.178;15.432;2022-12-20T07:27:50;-3.70;99.90
11446;DHT22;5779;64.178;15.432;2022-12-20T07:30:37;-3.70;99.90
11446;DHT22;5779;64.178;15.432;2022-12-20T07:33:25;-3.80;99.90
11446;DHT22;5779;64.178;15.432;2022-12-20T07:36:13;-3.70;99.90
11446;DHT22;5779;64.178;15.432;2022-12-20T07:39:00;-3.70;99.90
11446;DHT22;5779;64.178;15.432;2022-12-20T07:41:48;-3.60;99.90
11446;DHT22;5779;64.178;15.432;2022-12-20T07:44:35;-3.60;99.90
11446;DHT22;5779;64.178;15.432;2022-12-20T07:47:22;-3.60;99.90
11446;DHT22;5779;64.178;15.432;2022-12-20T07:50:10;-3.60;99.90
11446;DHT22;5779;64.178;15.432;2022-12-20T07:52:57;-3.70;99.90
11446;DHT22;5779;64.178;15.432;2022-12-20T07:55:44;-3.80;99.90
11446;DHT22;5779;64.178;15.432;2022-12-20T07:58:31;-3.80;99.90
11446;DHT22;5779;64.178;15.432;2022-12-20T08:01:20;-3.80;99.90
11446;DHT22;5779;64.178;15.432;2022-12-20T08:04:09;-3.70;99.90
11446;DHT22;5779;64.178;15.432;2022-12-20T08:06:59;-3.80;99.90
11446;DHT22;5779;64.178;15.432;2022-12-20T08:09:46;-3.80;99.90
11446;DHT22;5779;64.178;15.432;2022-12-20T08:12:34;-3.70;99.90
11446;DHT22;5779;64.178;15.432;2022-12-20T08:15:21;-3.80;99.90
11446;DHT22;5779;64.178;15.432;2022-12-20T08:18:08;-3.80;99.90
11446;DHT22;5779;64.178;15.432;2022-12-20T08:20:55;-3.70;99.90
11446;DHT22;5779;64.178;15.432;2022-12-20T08:23:43;-3.80;99.90
11446;DHT22;5779;64.178;15.432;2022-12-20T08:26:30;-3.80;99.90
11446;DHT22;5779;64.178;15.432;2022-12-20T08:29:17;-3.80;99.90
11446;DHT22;5779;64.178;15.432;2022-12-20T08:32:04;-3.80;99.90
11446;DHT22;5779;64.178;15.432;2022-12-20T08:34:51;-3.80;99.90
11446;DHT22;5779;64.178;15.432;2022-12-20T08:37:39;-3.70;99.90
11446;DHT22;5779;64.178;15.432;2022-12-20T08:40:27;-3.70;99.90
11446;DHT22;5779;64.178;15.432;2022-12-20T08:43:14;-3.70;99.90
11446;DHT22;5779;64.178;15.432;2022-12-20T08:46:02;-3.70;99.90
11446;DHT22;5779;64.178;15.432;2022-12-20T08:48:49;-3.70;99.90
11446;DHT22;5779;64.178;15.432;2022-12-20T08:51:36;-3.70;99.90
11446;DHT22;5779;64.178;15.432;2022-12-20T08:54:23;-3.60;99.90
11446;DHT22;5779;64.178;15.432;2022-12-20T08:57:11;-3.60;99.90
11446;DHT22;5779;64.178;15.432;2022-12-20T08:59:58;-3.70;99.90
11446;DHT22;5779;64.178;15.432;2022-12-20T09:02:45;-3.70;99.90
11446;DHT22;5779;64.178;15.432;2022-12-20T09:05:33;-3.70;99.90
11446;DHT22;5779;64.178;15.432;2022-12-20T09:08:21;-3.60;99.90
11446;DHT22;5779;64.178;15.432;2022-12-20T09:11:10;-3.70;99.90
11446;DHT22;5779;64.178;15.432;2022-12-20T09:13:59;-3.70;99.90
11446;DHT22;5779;64.178;15.432;2022-12-20T09:16:46;-3.50;99.90
11446;DHT22;5779;64.178;15.432;2022-12-20T09:19:33;-3.50;99.90
11446;DHT22;5779;64.178;15.432;2022-12-20T09:22:20;-3.50;99.90
11446;DHT22;5779;64.178;15.432;2022-12-20T09:25:07;-3.40;99.90
11446;DHT22;5779;64.178;15.432;2022-12-20T09:27:54;-3.40;99.90
11446;DHT22;5779;64.178;15.432;2022-12-20T09:30:43;-3.40;99.90
11446;DHT22;5779;64.178;15.432;2022-12-20T09:33:30;-3.50;99.90
11446;DHT22;5779;64.178;15.432;2022-12-20T09:36:19;-3.40;99.90
11446;DHT22;5779;64.178;15.432;2022-12-20T09:39:06;-3.40;99.90
11446;DHT22;5779;64.178;15.432;2022-12-20T09:41:52;-3.30;99.90
11446;DHT22;5779;64.178;15.432;2022-12-20T09:44:41;-3.30;99.90
11446;DHT22;5779;64.178;15.432;2022-12-20T09:47:30;-3.30;99.90
11446;DHT22;5779;64.178;15.432;2022-12-20T09:50:20;-3.30;99.90
11446;DHT22;5779;64.178;15.432;2022-12-20T15:44:11;-3.80;99.90
11446;DHT22;5779;64.178;15.432;2022-12-20T15:46:59;-3.50;99.90
11446;DHT22;5779;64.178;15.432;2022-12-20T15:49:46;-3.20;99.90
11446;DHT22;5779;64.178;15.432;2022-12-20T15:52:33;-3.10;99.90
11446;DHT22;5779;64.178;15.432;2022-12-20T15:55:20;-3.00;99.90
11446;DHT22;5779;64.178;15.432;2022-12-20T15:58:08;-2.90;99.90
11446;DHT22;5779;64.178;15.432;2022-12-20T16:00:59;-2.90;99.90
11446;DHT22;5779;64.178;15.432;2022-12-20T16:03:46;-3.00;99.90
11446;DHT22;5779;64.178;15.432;2022-12-20T16:06:33;-3.20;99.90
11446;DHT22;5779;64.178;15.432;2022-12-20T16:09:21;-3.30;99.90
11446;DHT22;5779;64.178;15.432;2022-12-20T16:12:13;-3.30;99.90
11446;DHT22;5779;64.178;15.432;2022-12-20T16:15:00;-3.30;99.90
11446;DHT22;5779;64.178;15.432;2022-12-20T16:17:49;-3.30;99.90
11446;DHT22;5779;64.178;15.432;2022-12-20T16:20:36;-3.20;99.90
11446;DHT22;5779;64.178;15.432;2022-12-20T16:23:23;-2.90;99.90
11446;DHT22;5779;64.178;15.432;2022-12-20T16:26:12;-2.80;99.90
11446;DHT22;5779;64.178;15.432;2022-12-20T16:28:59;-2.70;99.90
11446;DHT22;5779;64.178;15.432;2022-12-20T16:31:46;-2.70;99.90
11446;DHT22;5779;64.178;15.432;2022-12-20T16:34:35;-2.50;99.90
11446;DHT22;5779;64.178;15.432;2022-12-20T16:37:22;-2.40;99.90
11446;DHT22;5779;64.178;15.432;2022-12-20T16:40:10;-2.30;99.90
11446;DHT22;5779;64.178;15.432;2022-12-20T16:42:59;-2.30;99.90
11446;DHT22;5779;64.178;15.432;2022-12-20T16:45:46;-2.30;99.90
11446;DHT22;5779;64.178;15.432;2022-12-20T16:48:33;-2.30;99.90
11446;DHT22;5779;64.178;15.432;2022-12-20T16:51:26;-2.30;99.90
11446;DHT22;5779;64.178;15.432;2022-12-20T16:54:15;-2.30;99.90
11446;DHT22;5779;64.178;15.432;2022-12-20T16:57:03;-2.30;99.90
11446;DHT22;5779;64.178;15.432;2022-12-20T16:59:50;-2.20;99.90
11446;DHT22;5779;64.178;15.432;2022-12-20T17:02:37;-2.20;99.90
11446;DHT22;5779;64.178;15.432;2022-12-20T17:05:27;-2.10;99.90
11446;DHT22;5779;64.178;15.432;2022-12-20T17:08:15;-2.00;99.90
11446;DHT22;5779;64.178;15.432;2022-12-20T17:11:04;-2.20;99.90
11446;DHT22;5779;64.178;15.432;2022-12-20T17:13:55;-2.20;99.90
11446;DHT22;5779;64.178;15.432;2022-12-20T17:16:42;-2.20;99.90
11446;DHT22;5779;64.178;15.432;2022-12-20T17:19:29;-2.20;99.90
11446;DHT22;5779;64.178;15.432;2022-12-20T17:22:17;-2.30;99.90
11446;DHT22;5779;64.178;15.432;2022-12-20T17:25:17;-2.30;99.90
11446;DHT22;5779;64.178;15.432;2022-12-20T17:28:04;-2.20;99.90
11446;DHT22;5779;64.178;15.432;2022-12-20T17:30:51;-2.20;99.90
11446;DHT22;5779;64.178;15.432;2022-12-20T17:33:38;-2.10;99.90
11446;DHT22;5779;64.178;15.432;2022-12-20T17:36:25;-1.90;99.90
11446;DHT22;5779;64.178;15.432;2022-12-20T17:39:12;-1.90;99.90
11446;DHT22;5779;64.178;15.432;2022-12-20T17:42:00;-2.00;99.90
11446;DHT22;5779;64.178;15.432;2022-12-20T17:44:47;-2.10;99.90
11446;DHT22;5779;64.178;15.432;2022-12-20T17:47:34;-2.00;99.90
11446;DHT22;5779;64.178;15.432;2022-12-20T17:50:21;-2.30;99.90
11446;DHT22;5779;64.178;15.432;2022-12-20T17:53:08;-2.60;99.90
11446;DHT22;5779;64.178;15.432;2022-12-20T17:55:56;-2.60;99.90
11446;DHT22;5779;64.178;15.432;2022-12-20T17:58:45;-2.60;99.90
11446;DHT22;5779;64.178;15.432;2022-12-20T18:01:33;-2.50;99.90
11446;DHT22;5779;64.178;15.432;2022-12-20T18:04:20;-2.50;99.90
11446;DHT22;5779;64.178;15.432;2022-12-20T18:07:07;-2.60;99.90
11446;DHT22;5779;64.178;15.432;2022-12-20T18:09:54;-2.40;99.90
11446;DHT22;5779;64.178;15.432;2022-12-20T18:12:41;-2.40;99.90
11446;DHT22;5779;64.178;15.432;2022-12-20T18:15:30;-2.30;99.90
11446;DHT22;5779;64.178;15.432;2022-12-20T18:18:16;-2.20;99.90
11446;DHT22;5779;64.178;15.432;2022-12-20T18:21:05;-2.30;99.90
11446;DHT22;5779;64.178;15.432;2022-12-20T18:23:53;-2.20;99.90
11446;DHT22;5779;64.178;15.432;2022-12-20T18:26:40;-2.20;99.90
11446;DHT22;5779;64.178;15.432;2022-12-20T18:29:28;-2.10;99.90
11446;DHT22;5779;64.178;15.432;2022-12-20T18:32:16;-2.10;99.90
11446;DHT22;5779;64.178;15.432;2022-12-20T18:35:03;-2.20;99.90
11446;DHT22;5779;64.178;15.432;2022-12-20T18:37:50;-2.30;99.90
11446;DHT22;5779;64.178;15.432;2022-12-20T18:40:43;-2.30;99.90
11446;DHT22;5779;64.178;15.432;2022-12-20T18:43:31;-2.50;99.90
11446;DHT22;5779;64.178;15.432;2022-12-20T18:46:20;-2.50;99.90
11446;DHT22;5779;64.178;15.432;2022-12-20T18:49:08;-2.30;99.90
11446;DHT22;5779;64.178;15.432;2022-12-20T18:51:57;-2.20;99.90
11446;DHT22;5779;64.178;15.432;2022-12-20T18:54:44;-2.20;99.90
11446;DHT22;5779;64.178;15.432;2022-12-20T18:57:31;-2.20;99.90
11446;DHT22;5779;64.178;15.432;2022-12-20T19:00:19;-2.20;99.90
11446;DHT22;5779;64.178;15.432;2022-12-20T19:03:06;-2.10;99.90
11446;DHT22;5779;64.178;15.432;2022-12-20T19:05:55;-2.10;99.90
11446;DHT22;5779;64.178;15.432;2022-12-20T19:08:42;-2.10;99.90
11446;DHT22;5779;64.178;15.432;2022-12-20T19:11:29;-2.10;99.90
11446;DHT22;5779;64.178;15.432;2022-12-20T19:14:16;-2.00;99.90
11446;DHT22;5779;64.178;15.432;2022-12-20T19:17:03;-2.00;99.90
11446;DHT22;5779;64.178;15.432;2022-12-20T19:19:50;-2.00;99.90
11446;DHT22;5779;64.178;15.432;2022-12-20T19:22:38;-1.90;99.90
11446;DHT22;5779;64.178;15.432;2022-12-20T19:25:25;-1.90;99.90
11446;DHT22;5779;64.178;15.432;2022-12-20T19:28:12;-1.80;99.90
11446;DHT22;5779;64.178;15.432;2022-12-20T19:31:04;-1.90;99.90
11446;DHT22;5779;64.178;15.432;2022-12-20T19:33:54;-1.90;99.90
11446;DHT22;5779;64.178;15.432;2022-12-20T19:36:42;-1.90;99.90
11446;DHT22;5779;64.178;15.432;2022-12-20T19:39:31;-2.00;99.90
11446;DHT22;5779;64.178;15.432;2022-12-20T19:42:18;-2.00;99.90
11446;DHT22;5779;64.178;15.432;2022-12-20T19:45:06;-2.00;99.90
11446;DHT22;5779;64.178;15.432;2022-12-20T19:47:53;-2.00;99.90
11446;DHT22;5779;64.178;15.432;2022-12-20T19:50:40;-1.90;99.90
11446;DHT22;5779;64.178;15.432;2022-12-20T19:53:27;-1.80;99.90
11446;DHT22;5779;64.178;15.432;2022-12-20T19:56:17;-1.80;99.90
11446;DHT22;5779;64.178;15.432;2022-12-20T19:59:04;-1.70;99.90
11446;DHT22;5779;64.178;15.432;2022-12-20T20:01:51;-1.70;99.90
11446;DHT22;5779;64.178;15.432;2022-12-20T20:04:38;-1.90;99.90
11446;DHT22;5779;64.178;15.432;2022-12-20T20:07:25;-2.00;99.90
11446;DHT22;5779;64.178;15.432;2022-12-20T20:10:12;-2.10;99.90
11446;DHT22;5779;64.178;15.432;2022-12-20T20:13:01;-2.10;99.90
11446;DHT22;5779;64.178;15.432;2022-12-20T20:15:52;-2.10;99.90
11446;DHT22;5779;64.178;15.432;2022-12-20T20:18:39;-2.30;99.90
11446;DHT22;5779;64.178;15.432;2022-12-20T20:21:26;-2.20;99.90
11446;DHT22;5779;64.178;15.432;2022-12-20T20:24:13;-2.40;99.90
11446;DHT22;5779;64.178;15.432;2022-12-20T20:27:00;-2.40;99.90
11446;DHT22;5779;64.178;15.432;2022-12-20T20:29:50;-2.40;99.90
11446;DHT22;5779;64.178;15.432;2022-12-20T20:32:36;-2.30;99.90
11446;DHT22;5779;64.178;15.432;2022-12-20T20:35:23;-2.20;99.90
11446;DHT22;5779;64.178;15.432;2022-12-20T20:38:11;-2.20;99.90
11446;DHT22;5779;64.178;15.432;2022-12-20T20:40:58;-2.10;99.90
11446;DHT22;5779;64.178;15.432;2022-12-20T20:43:45;-2.00;99.90
11446;DHT22;5779;64.178;15.432;2022-12-20T20:46:33;-2.00;99.90
11446;DHT22;5779;64.178;15.432;2022-12-20T20:49:20;-2.00;99.90
11446;DHT22;5779;64.178;15.432;2022-12-20T20:52:07;-1.80;99.90
11446;DHT22;5779;64.178;15.432;2022-12-20T20:54:55;-1.70;99.90
11446;DHT22;5779;64.178;15.432;2022-12-20T20:57:41;-1.80;99.90
11446;DHT22;5779;64.178;15.432;2022-12-20T21:00:29;-1.80;99.90
11446;DHT22;5779;64.178;15.432;2022-12-20T21:03:18;-1.80;99.90
11446;DHT22;5779;64.178;15.432;2022-12-20T21:06:06;-1.90;99.90
11446;DHT22;5779;64.178;15.432;2022-12-20T21:08:52;-1.90;99.90
11446;DHT22;5779;64.178;15.432;2022-12-20T21:11:40;-2.50;99.90
11446;DHT22;5779;64.178;15.432;2022-12-20T21:14:26;-2.50;99.90
11446;DHT22;5779;64.178;15.432;2022-12-20T21:17:14;-2.50;99.90
11446;DHT22;5779;64.178;15.432;2022-12-20T21:20:11;-2.80;99.90
11446;DHT22;5779;64.178;15.432;2022-12-20T21:22:59;-2.90;99.90
11446;DHT22;5779;64.178;15.432;2022-12-20T21:25:55;-2.70;99.90
11446;DHT22;5779;64.178;15.432;2022-12-20T21:28:42;-2.50;99.90
11446;DHT22;5779;64.178;15.432;2022-12-20T21:31:29;-2.30;99.90
11446;DHT22;5779;64.178;15.432;2022-12-20T21:34:17;-2.20;99.90
11446;DHT22;5779;64.178;15.432;2022-12-20T21:37:05;-2.20;99.90
11446;DHT22;5779;64.178;15.432;2022-12-20T21:39:52;-2.10;99.90
11446;DHT22;5779;64.178;15.432;2022-12-20T21:42:39;-2.10;99.90
11446;DHT22;5779;64.178;15.432;2022-12-20T21:45:26;-2.00;99.90
11446;DHT22;5779;64.178;15.432;2022-12-20T21:48:13;-2.10;99.90
11446;DHT22;5779;64.178;15.432;2022-12-20T21:51:01;-2.10;99.90
11446;DHT22;5779;64.178;15.432;2022-12-20T21:53:53;-2.10;99.90
11446;DHT22;5779;64.178;15.432;2022-12-20T21:56:40;-2.10;99.90
11446;DHT22;5779;64.178;15.432;2022-12-20T21:59:27;-2.10;99.90
11446;DHT22;5779;64.178;15.432;2022-12-20T22:02:13;-2.20;99.90
11446;DHT22;5779;64.178;15.432;2022-12-20T22:05:00;-2.10;99.90
11446;DHT22;5779;64.178;15.432;2022-12-20T22:07:47;-2.10;99.90
11446;DHT22;5779;64.178;15.432;2022-12-20T22:10:35;-2.20;99.90
11446;DHT22;5779;64.178;15.432;2022-12-20T22:13:22;-2.30;99.90
11446;DHT22;5779;64.178;15.432;2022-12-20T22:16:11;-2.30;99.90
11446;DHT22;5779;64.178;15.432;2022-12-20T22:18:59;-2.20;99.90
11446;DHT22;5779;64.178;15.432;2022-12-20T22:21:46;-2.40;99.90
11446;DHT22;5779;64.178;15.432;2022-12-20T22:24:33;-2.60;99.90
11446;DHT22;5779;64.178;15.432;2022-12-20T22:27:22;-2.80;99.90
11446;DHT22;5779;64.178;15.432;2022-12-20T22:30:10;-3.20;99.90
11446;DHT22;5779;64.178;15.432;2022-12-20T22:32:57;-3.40;99.90
11446;DHT22;5779;64.178;15.432;2022-12-20T22:35:44;-3.20;99.90
11446;DHT22;5779;64.178;15.432;2022-12-20T22:38:31;-2.90;99.90
11446;DHT22;5779;64.178;15.432;2022-12-20T22:41:19;-2.70;99.90
11446;DHT22;5779;64.178;15.432;2022-12-20T22:44:08;-2.60;99.90
11446;DHT22;5779;64.178;15.432;2022-12-20T22:46:55;-2.40;99.90
11446;DHT22;5779;64.178;15.432;2022-12-20T22:49:41;-2.30;99.90
11446;DHT22;5779;64.178;15.432;2022-12-20T22:52:28;-2.10;99.90
11446;DHT22;5779;64.178;15.432;2022-12-20T22:55:15;-2.10;99.90
11446;DHT22;5779;64.178;15.432;2022-12-20T22:58:02;-2.10;99.90
11446;DHT22;5779;64.178;15.432;2022-12-20T23:00:51;-2.10;99.90
11446;DHT22;5779;64.178;15.432;2022-12-20T23:03:38;-2.10;99.90
11446;DHT22;5779;64.178;15.432;2022-12-20T23:06:25;-2.00;99.90
11446;DHT22;5779;64.178;15.432;2022-12-20T23:09:12;-2.00;99.90
11446;DHT22;5779;64.178;15.432;2022-12-20T23:11:59;-2.10;99.90
11446;DHT22;5779;64.178;15.432;2022-12-20T23:15:04;-2.20;99.90
11446;DHT22;5779;64.178;15.432;2022-12-20T23:18:06;-2.10;99.90
11446;DHT22;5779;64.178;15.432;2022-12-20T23:20:53;-2.20;99.90
11446;DHT22;5779;64.178;15.432;2022-12-20T23:24:06;-2.10;99.90
11446;DHT22;5779;64.178;15.432;2022-12-20T23:26:53;-2.10;99.90
11446;DHT22;5779;64.178;15.432;2022-12-20T23:29:40;-2.10;99.90
11446;DHT22;5779;64.178;15.432;2022-12-20T23:32:27;-2.00;99.90